sensor_id;sensor_type;location;lat;lon;timestamp;P1;durP1;ratioP1;P2;durP2;ratioP2
38513;SDS011;24282;48.400;10.808;2023-11-18T00:01:15;3.70;;;2.70;;
38513;SDS011;24282;48.400;10.808;2023-11-18T00:03:41;3.20;;;2.50;;
38513;SDS011;24282;48.400;10.808;2023-11-18T00:06:06;5.47;;;3.07;;
38513;SDS011;24282;48.400;10.808;2023-11-18T00:08:33;2.97;;;2.30;;
38513;SDS011;24282;48.400;10.808;2023-11-18T00:10:59;4.57;;;3.03;;
38513;SDS011;24282;48.400;10.808;2023-11-18T00:13:25;3.50;;;2.47;;
38513;SDS011;24282;48.400;10.808;2023-11-18T00:15:54;4.27;;;3.10;;
38513;SDS011;24282;48.400;10.808;2023-11-18T00:18:19;3.80;;;2.90;;
38513;SDS011;24282;48.400;10.808;2023-11-18T00:20:45;3.93;;;2.33;;
38513;SDS011;24282;48.400;10.808;2023-11-18T00:23:11;3.40;;;2.57;;
38513;SDS011;24282;48.400;10.808;2023-11-18T00:25:37;2.63;;;1.90;;
38513;SDS011;24282;48.400;10.808;2023-11-18T00:28:05;3.37;;;2.67;;
38513;SDS011;24282;48.400;10.808;2023-11-18T00:30:34;3.13;;;2.50;;
38513;SDS011;24282;48.400;10.808;2023-11-18T00:33:00;3.13;;;2.13;;
38513;SDS011;24282;48.400;10.808;2023-11-18T00:35:29;2.80;;;2.00;;
38513;SDS011;24282;48.400;10.808;2023-11-18T00:37:59;2.50;;;2.10;;
38513;SDS011;24282;48.400;10.808;2023-11-18T00:40:25;2.87;;;2.23;;
38513;SDS011;24282;48.400;10.808;2023-11-18T00:42:53;2.60;;;2.10;;
38513;SDS011;24282;48.400;10.808;2023-11-18T00:45:19;3.43;;;2.50;;
38513;SDS011;24282;48.400;10.808;2023-11-18T00:47:44;3.67;;;2.47;;
38513;SDS011;24282;48.400;10.808;2023-11-18T00:50:10;3.33;;;2.57;;
38513;SDS011;24282;48.400;10.808;2023-11-18T00:52:36;3.17;;;2.40;;
38513;SDS011;24282;48.400;10.808;2023-11-18T00:55:06;7.43;;;2.60;;
38513;SDS011;24282;48.400;10.808;2023-11-18T00:57:33;3.13;;;2.23;;
38513;SDS011;24282;48.400;10.808;2023-11-18T01:00:00;5.53;;;2.13;;
38513;SDS011;24282;48.400;10.808;2023-11-18T01:02:25;3.40;;;2.40;;
38513;SDS011;24282;48.400;10.808;2023-11-18T01:04:52;2.53;;;1.80;;
38513;SDS011;24282;48.400;10.808;2023-11-18T01:07:18;2.53;;;1.87;;
38513;SDS011;24282;48.400;10.808;2023-11-18T01:09:44;3.70;;;2.20;;
38513;SDS011;24282;48.400;10.808;2023-11-18T01:12:10;3.53;;;2.60;;
38513;SDS011;24282;48.400;10.808;2023-11-18T01:14:39;2.70;;;2.23;;
38513;SDS011;24282;48.400;10.808;2023-11-18T01:17:06;3.10;;;2.20;;
38513;SDS011;24282;48.400;10.808;2023-11-18T01:19:32;2.77;;;2.10;;
38513;SDS011;24282;48.400;10.808;2023-11-18T01:22:01;3.40;;;2.47;;
38513;SDS011;24282;48.400;10.808;2023-11-18T01:24:30;3.27;;;2.40;;
38513;SDS011;24282;48.400;10.808;2023-11-18T01:26:57;4.23;;;2.40;;
38513;SDS011;24282;48.400;10.808;2023-11-18T01:29:24;2.80;;;2.13;;
38513;SDS011;24282;48.400;10.808;2023-11-18T01:31:50;3.27;;;2.07;;
38513;SDS011;24282;48.400;10.808;2023-11-18T01:34:16;3.40;;;2.30;;
38513;SDS011;24282;48.400;10.808;2023-11-18T01:36:42;2.53;;;1.97;;
38513;SDS011;24282;48.400;10.808;2023-11-18T01:39:09;2.67;;;2.20;;
38513;SDS011;24282;48.400;10.808;2023-11-18T01:41:35;2.83;;;2.30;;
38513;SDS011;24282;48.400;10.808;2023-11-18T01:44:01;3.07;;;2.47;;
38513;SDS011;24282;48.400;10.808;2023-11-18T01:46:26;2.43;;;2.03;;
38513;SDS011;24282;48.400;10.808;2023-11-18T01:48:55;3.10;;;2.23;;
38513;SDS011;24282;48.400;10.808;2023-11-18T01:51:21;2.57;;;2.00;;
38513;SDS011;24282;48.400;10.808;2023-11-18T01:53:48;2.93;;;2.30;;
38513;SDS011;24282;48.400;10.808;2023-11-18T01:56:15;2.50;;;1.97;;
38513;SDS011;24282;48.400;10.808;2023-11-18T01:58:41;5.57;;;2.03;;
38513;SDS011;24282;48.400;10.808;2023-11-18T02:01:07;2.70;;;1.83;;
38513;SDS011;24282;48.400;10.808;2023-11-18T02:03:34;3.17;;;2.07;;
38513;SDS011;24282;48.400;10.808;2023-11-18T02:06:00;2.97;;;2.17;;
38513;SDS011;24282;48.400;10.808;2023-11-18T02:08:30;2.97;;;2.00;;
38513;SDS011;24282;48.400;10.808;2023-11-18T02:13:56;2.70;;;1.97;;
38513;SDS011;24282;48.400;10.808;2023-11-18T02:16:28;3.03;;;2.53;;
38513;SDS011;24282;48.400;10.808;2023-11-18T02:18:54;2.83;;;2.33;;
38513;SDS011;24282;48.400;10.808;2023-11-18T02:21:20;2.93;;;2.13;;
38513;SDS011;24282;48.400;10.808;2023-11-18T02:23:48;3.30;;;2.50;;
38513;SDS011;24282;48.400;10.808;2023-11-18T02:26:24;3.63;;;2.13;;
38513;SDS011;24282;48.400;10.808;2023-11-18T02:28:50;2.53;;;2.07;;
38513;SDS011;24282;48.400;10.808;2023-11-18T02:31:30;2.53;;;2.00;;
38513;SDS011;24282;48.400;10.808;2023-11-18T02:34:05;2.95;;;2.10;;
38513;SDS011;24282;48.400;10.808;2023-11-18T02:36:45;3.00;;;2.47;;
38513;SDS011;24282;48.400;10.808;2023-11-18T02:39:24;3.10;;;2.22;;
38513;SDS011;24282;48.400;10.808;2023-11-18T02:42:03;3.07;;;2.10;;
38513;SDS011;24282;48.400;10.808;2023-11-18T02:44:33;2.80;;;2.10;;
38513;SDS011;24282;48.400;10.808;2023-11-18T02:47:01;4.50;;;2.90;;
38513;SDS011;24282;48.400;10.808;2023-11-18T02:49:30;9.60;;;5.20;;
38513;SDS011;24282;48.400;10.808;2023-11-18T02:51:56;8.73;;;4.00;;
38513;SDS011;24282;48.400;10.808;2023-11-18T02:54:22;4.33;;;3.27;;
38513;SDS011;24282;48.400;10.808;2023-11-18T02:56:48;3.63;;;2.60;;
38513;SDS011;24282;48.400;10.808;2023-11-18T02:59:17;3.57;;;2.80;;
38513;SDS011;24282;48.400;10.808;2023-11-18T03:01:43;3.10;;;2.80;;
38513;SDS011;24282;48.400;10.808;2023-11-18T03:04:09;2.90;;;2.23;;
38513;SDS011;24282;48.400;10.808;2023-11-18T03:06:35;3.43;;;2.40;;
38513;SDS011;24282;48.400;10.808;2023-11-18T03:09:01;3.23;;;2.60;;
38513;SDS011;24282;48.400;10.808;2023-11-18T03:11:32;3.20;;;2.63;;
38513;SDS011;24282;48.400;10.808;2023-11-18T03:13:58;2.93;;;2.47;;
38513;SDS011;24282;48.400;10.808;2023-11-18T03:16:24;3.93;;;2.67;;
38513;SDS011;24282;48.400;10.808;2023-11-18T03:18:50;4.87;;;2.50;;
38513;SDS011;24282;48.400;10.808;2023-11-18T03:21:16;3.20;;;2.50;;
38513;SDS011;24282;48.400;10.808;2023-11-18T03:23:44;3.77;;;2.43;;
38513;SDS011;24282;48.400;10.808;2023-11-18T03:26:10;2.83;;;2.50;;
38513;SDS011;24282;48.400;10.808;2023-11-18T03:28:36;3.17;;;2.70;;
38513;SDS011;24282;48.400;10.808;2023-11-18T03:31:05;2.77;;;2.37;;
38513;SDS011;24282;48.400;10.808;2023-11-18T03:33:32;4.27;;;2.73;;
38513;SDS011;24282;48.400;10.808;2023-11-18T03:35:58;2.97;;;2.60;;
38513;SDS011;24282;48.400;10.808;2023-11-18T03:38:24;3.70;;;3.10;;
38513;SDS011;24282;48.400;10.808;2023-11-18T03:40:50;3.90;;;3.00;;
38513;SDS011;24282;48.400;10.808;2023-11-18T03:43:17;3.30;;;2.60;;
38513;SDS011;24282;48.400;10.808;2023-11-18T03:45:43;4.20;;;2.77;;
38513;SDS011;24282;48.400;10.808;2023-11-18T03:48:09;3.53;;;2.97;;
38513;SDS011;24282;48.400;10.808;2023-11-18T03:50:39;3.10;;;2.43;;
38513;SDS011;24282;48.400;10.808;2023-11-18T03:53:06;3.40;;;2.70;;
38513;SDS011;24282;48.400;10.808;2023-11-18T03:55:31;3.30;;;2.60;;
38513;SDS011;24282;48.400;10.808;2023-11-18T03:57:58;3.53;;;2.53;;
38513;SDS011;24282;48.400;10.808;2023-11-18T04:00:24;3.87;;;2.83;;
38513;SDS011;24282;48.400;10.808;2023-11-18T04:02:55;3.57;;;2.93;;
38513;SDS011;24282;48.400;10.808;2023-11-18T04:05:22;3.43;;;2.83;;
38513;SDS011;24282;48.400;10.808;2023-11-18T04:07:47;4.23;;;2.97;;
38513;SDS011;24282;48.400;10.808;2023-11-18T04:10:13;3.27;;;2.73;;
38513;SDS011;24282;48.400;10.808;2023-11-18T04:12:40;3.53;;;2.83;;
38513;SDS011;24282;48.400;10.808;2023-11-18T04:15:07;3.70;;;2.50;;
38513;SDS011;24282;48.400;10.808;2023-11-18T04:17:33;3.37;;;2.90;;
38513;SDS011;24282;48.400;10.808;2023-11-18T04:19:59;3.83;;;2.50;;
38513;SDS011;24282;48.400;10.808;2023-11-18T04:22:25;5.70;;;3.17;;
38513;SDS011;24282;48.400;10.808;2023-11-18T04:24:50;3.70;;;2.40;;
38513;SDS011;24282;48.400;10.808;2023-11-18T04:27:16;2.90;;;2.33;;
38513;SDS011;24282;48.400;10.808;2023-11-18T04:29:42;3.60;;;2.80;;
38513;SDS011;24282;48.400;10.808;2023-11-18T04:32:08;3.77;;;2.60;;
38513;SDS011;24282;48.400;10.808;2023-11-18T04:34:36;4.20;;;2.97;;
38513;SDS011;24282;48.400;10.808;2023-11-18T04:37:05;3.00;;;2.57;;
38513;SDS011;24282;48.400;10.808;2023-11-18T04:39:31;3.60;;;2.73;;
38513;SDS011;24282;48.400;10.808;2023-11-18T04:41:58;3.40;;;2.57;;
38513;SDS011;24282;48.400;10.808;2023-11-18T04:44:23;4.40;;;2.50;;
38513;SDS011;24282;48.400;10.808;2023-11-18T04:46:49;3.23;;;2.57;;
38513;SDS011;24282;48.400;10.808;2023-11-18T04:49:17;3.77;;;2.90;;
38513;SDS011;24282;48.400;10.808;2023-11-18T04:51:44;3.47;;;2.80;;
38513;SDS011;24282;48.400;10.808;2023-11-18T04:54:10;3.87;;;2.60;;
38513;SDS011;24282;48.400;10.808;2023-11-18T04:56:36;3.53;;;2.77;;
38513;SDS011;24282;48.400;10.808;2023-11-18T04:59:05;3.70;;;2.90;;
38513;SDS011;24282;48.400;10.808;2023-11-18T05:01:31;4.03;;;3.07;;
38513;SDS011;24282;48.400;10.808;2023-11-18T05:03:57;3.53;;;3.23;;
38513;SDS011;24282;48.400;10.808;2023-11-18T05:06:24;3.43;;;3.03;;
38513;SDS011;24282;48.400;10.808;2023-11-18T05:08:51;4.30;;;2.90;;
38513;SDS011;24282;48.400;10.808;2023-11-18T05:11:17;3.70;;;2.93;;
38513;SDS011;24282;48.400;10.808;2023-11-18T05:13:43;3.67;;;3.10;;
38513;SDS011;24282;48.400;10.808;2023-11-18T05:16:09;4.17;;;3.00;;
38513;SDS011;24282;48.400;10.808;2023-11-18T05:18:37;3.83;;;3.00;;
38513;SDS011;24282;48.400;10.808;2023-11-18T05:21:04;3.43;;;2.70;;
38513;SDS011;24282;48.400;10.808;2023-11-18T05:23:30;3.67;;;3.00;;
38513;SDS011;24282;48.400;10.808;2023-11-18T05:25:59;4.60;;;3.33;;
38513;SDS011;24282;48.400;10.808;2023-11-18T05:28:25;4.83;;;3.27;;
38513;SDS011;24282;48.400;10.808;2023-11-18T05:30:50;5.43;;;3.37;;
38513;SDS011;24282;48.400;10.808;2023-11-18T05:33:17;4.67;;;3.13;;
38513;SDS011;24282;48.400;10.808;2023-11-18T05:35:44;4.40;;;3.20;;
38513;SDS011;24282;48.400;10.808;2023-11-18T05:38:19;3.57;;;2.90;;
38513;SDS011;24282;48.400;10.808;2023-11-18T05:40:50;3.83;;;3.33;;
38513;SDS011;24282;48.400;10.808;2023-11-18T05:43:23;4.03;;;3.13;;
38513;SDS011;24282;48.400;10.808;2023-11-18T05:45:53;4.97;;;3.10;;
38513;SDS011;24282;48.400;10.808;2023-11-18T05:48:37;3.90;;;3.17;;
38513;SDS011;24282;48.400;10.808;2023-11-18T05:51:03;5.50;;;3.77;;
38513;SDS011;24282;48.400;10.808;2023-11-18T05:53:29;3.80;;;3.13;;
38513;SDS011;24282;48.400;10.808;2023-11-18T05:55:55;3.70;;;3.10;;
38513;SDS011;24282;48.400;10.808;2023-11-18T05:58:21;4.27;;;3.33;;
38513;SDS011;24282;48.400;10.808;2023-11-18T06:00:47;4.23;;;3.20;;
38513;SDS011;24282;48.400;10.808;2023-11-18T06:03:12;4.20;;;2.90;;
38513;SDS011;24282;48.400;10.808;2023-11-18T06:05:38;3.80;;;2.87;;
38513;SDS011;24282;48.400;10.808;2023-11-18T06:08:05;3.90;;;3.30;;
38513;SDS011;24282;48.400;10.808;2023-11-18T06:10:30;3.23;;;2.80;;
38513;SDS011;24282;48.400;10.808;2023-11-18T06:12:57;3.97;;;3.40;;
38513;SDS011;24282;48.400;10.808;2023-11-18T06:15:23;3.77;;;2.97;;
38513;SDS011;24282;48.400;10.808;2023-11-18T06:17:49;3.60;;;2.70;;
38513;SDS011;24282;48.400;10.808;2023-11-18T06:20:15;4.63;;;3.43;;
38513;SDS011;24282;48.400;10.808;2023-11-18T06:22:42;5.90;;;4.30;;
38513;SDS011;24282;48.400;10.808;2023-11-18T06:25:08;5.97;;;4.70;;
38513;SDS011;24282;48.400;10.808;2023-11-18T06:27:34;6.83;;;4.73;;
38513;SDS011;24282;48.400;10.808;2023-11-18T06:29:59;5.77;;;4.73;;
38513;SDS011;24282;48.400;10.808;2023-11-18T06:32:26;4.97;;;3.97;;
38513;SDS011;24282;48.400;10.808;2023-11-18T06:34:52;4.87;;;4.03;;
38513;SDS011;24282;48.400;10.808;2023-11-18T06:37:18;7.30;;;4.37;;
38513;SDS011;24282;48.400;10.808;2023-11-18T06:39:44;4.27;;;3.57;;
38513;SDS011;24282;48.400;10.808;2023-11-18T06:42:12;3.97;;;3.10;;
38513;SDS011;24282;48.400;10.808;2023-11-18T06:44:39;4.23;;;3.53;;
38513;SDS011;24282;48.400;10.808;2023-11-18T06:47:05;3.93;;;3.00;;
38513;SDS011;24282;48.400;10.808;2023-11-18T06:49:31;3.83;;;3.43;;
38513;SDS011;24282;48.400;10.808;2023-11-18T06:52:02;4.63;;;3.43;;
38513;SDS011;24282;48.400;10.808;2023-11-18T06:54:30;4.23;;;3.37;;
38513;SDS011;24282;48.400;10.808;2023-11-18T06:56:58;3.93;;;3.10;;
38513;SDS011;24282;48.400;10.808;2023-11-18T06:59:24;5.27;;;3.80;;
38513;SDS011;24282;48.400;10.808;2023-11-18T07:01:49;9.17;;;4.30;;
38513;SDS011;24282;48.400;10.808;2023-11-18T07:04:15;6.07;;;4.40;;
38513;SDS011;24282;48.400;10.808;2023-11-18T07:06:41;4.60;;;3.73;;
38513;SDS011;24282;48.400;10.808;2023-11-18T07:09:08;4.60;;;3.77;;
38513;SDS011;24282;48.400;10.808;2023-11-18T07:11:46;4.83;;;3.73;;
38513;SDS011;24282;48.400;10.808;2023-11-18T07:14:12;4.80;;;3.97;;
38513;SDS011;24282;48.400;10.808;2023-11-18T07:16:40;4.63;;;3.73;;
38513;SDS011;24282;48.400;10.808;2023-11-18T07:19:06;4.53;;;3.90;;
38513;SDS011;24282;48.400;10.808;2023-11-18T07:21:33;4.57;;;3.80;;
38513;SDS011;24282;48.400;10.808;2023-11-18T07:23:59;4.77;;;3.90;;
38513;SDS011;24282;48.400;10.808;2023-11-18T07:26:27;5.00;;;4.30;;
38513;SDS011;24282;48.400;10.808;2023-11-18T07:28:52;4.27;;;3.53;;
38513;SDS011;24282;48.400;10.808;2023-11-18T07:31:18;4.53;;;4.00;;
38513;SDS011;24282;48.400;10.808;2023-11-18T07:33:44;4.47;;;3.67;;
38513;SDS011;24282;48.400;10.808;2023-11-18T07:36:17;4.20;;;3.50;;
38513;SDS011;24282;48.400;10.808;2023-11-18T07:38:45;4.27;;;3.40;;
38513;SDS011;24282;48.400;10.808;2023-11-18T07:41:11;4.60;;;3.80;;
38513;SDS011;24282;48.400;10.808;2023-11-18T07:43:51;6.30;;;4.23;;
38513;SDS011;24282;48.400;10.808;2023-11-18T07:46:24;5.35;;;4.43;;
38513;SDS011;24282;48.400;10.808;2023-11-18T07:48:50;6.30;;;5.20;;
38513;SDS011;24282;48.400;10.808;2023-11-18T07:51:17;5.50;;;4.27;;
38513;SDS011;24282;48.400;10.808;2023-11-18T07:53:46;5.23;;;4.43;;
38513;SDS011;24282;48.400;10.808;2023-11-18T07:56:13;6.30;;;4.77;;
38513;SDS011;24282;48.400;10.808;2023-11-18T07:58:41;5.43;;;4.53;;
38513;SDS011;24282;48.400;10.808;2023-11-18T08:03:41;5.97;;;4.47;;
38513;SDS011;24282;48.400;10.808;2023-11-18T08:06:07;5.60;;;4.53;;
38513;SDS011;24282;48.400;10.808;2023-11-18T08:08:34;5.13;;;4.20;;
38513;SDS011;24282;48.400;10.808;2023-11-18T08:11:02;5.37;;;4.20;;
38513;SDS011;24282;48.400;10.808;2023-11-18T08:13:28;6.67;;;5.43;;
38513;SDS011;24282;48.400;10.808;2023-11-18T08:15:53;5.23;;;4.73;;
38513;SDS011;24282;48.400;10.808;2023-11-18T08:18:19;5.47;;;4.33;;
38513;SDS011;24282;48.400;10.808;2023-11-18T08:20:46;5.60;;;4.30;;
38513;SDS011;24282;48.400;10.808;2023-11-18T08:23:12;5.30;;;4.20;;
38513;SDS011;24282;48.400;10.808;2023-11-18T08:25:38;4.77;;;4.17;;
38513;SDS011;24282;48.400;10.808;2023-11-18T08:28:05;5.53;;;4.27;;
38513;SDS011;24282;48.400;10.808;2023-11-18T08:30:32;5.17;;;4.37;;
38513;SDS011;24282;48.400;10.808;2023-11-18T08:33:07;5.00;;;3.67;;
38513;SDS011;24282;48.400;10.808;2023-11-18T08:35:36;4.47;;;3.93;;
38513;SDS011;24282;48.400;10.808;2023-11-18T08:38:02;4.90;;;4.17;;
38513;SDS011;24282;48.400;10.808;2023-11-18T08:40:29;5.13;;;4.17;;
38513;SDS011;24282;48.400;10.808;2023-11-18T08:42:55;5.13;;;4.60;;
38513;SDS011;24282;48.400;10.808;2023-11-18T08:45:22;5.17;;;4.37;;
38513;SDS011;24282;48.400;10.808;2023-11-18T08:47:58;5.73;;;4.73;;
38513;SDS011;24282;48.400;10.808;2023-11-18T08:50:36;5.50;;;4.03;;
38513;SDS011;24282;48.400;10.808;2023-11-18T08:53:05;5.67;;;4.70;;
38513;SDS011;24282;48.400;10.808;2023-11-18T08:55:34;5.60;;;4.33;;
38513;SDS011;24282;48.400;10.808;2023-11-18T08:58:10;5.55;;;4.97;;
38513;SDS011;24282;48.400;10.808;2023-11-18T09:00:58;7.03;;;4.93;;
38513;SDS011;24282;48.400;10.808;2023-11-18T09:03:30;5.57;;;4.37;;
38513;SDS011;24282;48.400;10.808;2023-11-18T09:06:00;5.83;;;4.80;;
38513;SDS011;24282;48.400;10.808;2023-11-18T09:08:34;6.10;;;4.90;;
38513;SDS011;24282;48.400;10.808;2023-11-18T09:11:04;5.33;;;4.73;;
38513;SDS011;24282;48.400;10.808;2023-11-18T09:13:31;5.43;;;4.40;;
38513;SDS011;24282;48.400;10.808;2023-11-18T09:16:03;7.43;;;4.80;;
38513;SDS011;24282;48.400;10.808;2023-11-18T09:18:40;5.07;;;4.27;;
38513;SDS011;24282;48.400;10.808;2023-11-18T09:21:10;6.03;;;4.83;;
38513;SDS011;24282;48.400;10.808;2023-11-18T09:23:40;5.00;;;4.23;;
38513;SDS011;24282;48.400;10.808;2023-11-18T09:26:07;4.30;;;3.80;;
38513;SDS011;24282;48.400;10.808;2023-11-18T09:28:35;5.47;;;4.30;;
38513;SDS011;24282;48.400;10.808;2023-11-18T09:31:02;6.70;;;4.23;;
38513;SDS011;24282;48.400;10.808;2023-11-18T09:33:29;4.70;;;4.20;;
38513;SDS011;24282;48.400;10.808;2023-11-18T09:36:02;4.63;;;3.90;;
38513;SDS011;24282;48.400;10.808;2023-11-18T09:38:35;5.60;;;4.17;;
38513;SDS011;24282;48.400;10.808;2023-11-18T09:41:05;4.43;;;3.70;;
38513;SDS011;24282;48.400;10.808;2023-11-18T09:43:33;4.07;;;3.40;;
38513;SDS011;24282;48.400;10.808;2023-11-18T09:46:07;4.33;;;3.33;;
38513;SDS011;24282;48.400;10.808;2023-11-18T09:51:15;4.70;;;3.80;;
38513;SDS011;24282;48.400;10.808;2023-11-18T09:53:46;6.20;;;3.77;;
38513;SDS011;24282;48.400;10.808;2023-11-18T09:59:03;5.33;;;3.77;;
38513;SDS011;24282;48.400;10.808;2023-11-18T10:01:40;4.10;;;3.30;;
38513;SDS011;24282;48.400;10.808;2023-11-18T10:04:09;4.73;;;3.30;;
38513;SDS011;24282;48.400;10.808;2023-11-18T10:06:36;5.17;;;3.50;;
38513;SDS011;24282;48.400;10.808;2023-11-18T10:09:06;4.03;;;3.47;;
38513;SDS011;24282;48.400;10.808;2023-11-18T10:11:42;5.33;;;3.30;;
38513;SDS011;24282;48.400;10.808;2023-11-18T10:14:12;4.27;;;3.40;;
38513;SDS011;24282;48.400;10.808;2023-11-18T10:16:41;4.00;;;3.47;;
38513;SDS011;24282;48.400;10.808;2023-11-18T10:19:13;4.30;;;2.50;;
38513;SDS011;24282;48.400;10.808;2023-11-18T10:21:42;4.07;;;3.40;;
38513;SDS011;24282;48.400;10.808;2023-11-18T10:24:08;4.70;;;3.40;;
38513;SDS011;24282;48.400;10.808;2023-11-18T10:26:46;5.07;;;3.70;;
38513;SDS011;24282;48.400;10.808;2023-11-18T10:29:21;4.83;;;2.93;;
38513;SDS011;24282;48.400;10.808;2023-11-18T10:32:05;3.90;;;3.47;;
38513;SDS011;24282;48.400;10.808;2023-11-18T10:34:45;4.73;;;3.37;;
38513;SDS011;24282;48.400;10.808;2023-11-18T10:37:10;3.97;;;3.00;;
38513;SDS011;24282;48.400;10.808;2023-11-18T10:39:36;4.60;;;3.70;;
38513;SDS011;24282;48.400;10.808;2023-11-18T10:42:02;5.43;;;3.90;;
38513;SDS011;24282;48.400;10.808;2023-11-18T10:44:28;4.30;;;3.30;;
38513;SDS011;24282;48.400;10.808;2023-11-18T10:46:54;3.43;;;2.70;;
38513;SDS011;24282;48.400;10.808;2023-11-18T10:49:24;4.23;;;2.63;;
38513;SDS011;24282;48.400;10.808;2023-11-18T10:52:02;5.27;;;3.57;;
38513;SDS011;24282;48.400;10.808;2023-11-18T10:54:32;5.43;;;3.93;;
38513;SDS011;24282;48.400;10.808;2023-11-18T10:57:00;4.87;;;2.70;;
38513;SDS011;24282;48.400;10.808;2023-11-18T11:01:58;5.03;;;3.10;;
38513;SDS011;24282;48.400;10.808;2023-11-18T11:04:24;4.40;;;2.70;;
38513;SDS011;24282;48.400;10.808;2023-11-18T11:06:50;3.67;;;2.67;;
38513;SDS011;24282;48.400;10.808;2023-11-18T11:09:21;3.90;;;2.80;;
38513;SDS011;24282;48.400;10.808;2023-11-18T11:12:02;4.07;;;2.67;;
38513;SDS011;24282;48.400;10.808;2023-11-18T11:14:42;4.80;;;2.93;;
38513;SDS011;24282;48.400;10.808;2023-11-18T11:17:16;3.60;;;2.40;;
38513;SDS011;24282;48.400;10.808;2023-11-18T11:19:59;4.20;;;2.70;;
38513;SDS011;24282;48.400;10.808;2023-11-18T11:23:30;4.17;;;2.90;;
38513;SDS011;24282;48.400;10.808;2023-11-18T11:25:50;4.37;;;2.70;;
38513;SDS011;24282;48.400;10.808;2023-11-18T11:28:43;4.20;;;2.40;;
38513;SDS011;24282;48.400;10.808;2023-11-18T11:34:04;2.70;;;1.90;;
38513;SDS011;24282;48.400;10.808;2023-11-18T11:36:41;2.87;;;1.80;;
38513;SDS011;24282;48.400;10.808;2023-11-18T11:39:11;3.40;;;2.30;;
38513;SDS011;24282;48.400;10.808;2023-11-18T11:41:45;3.37;;;1.97;;
38513;SDS011;24282;48.400;10.808;2023-11-18T11:44:16;2.90;;;1.97;;
38513;SDS011;24282;48.400;10.808;2023-11-18T11:46:44;2.77;;;1.60;;
38513;SDS011;24282;48.400;10.808;2023-11-18T11:49:18;2.83;;;1.97;;
38513;SDS011;24282;48.400;10.808;2023-11-18T11:51:53;4.40;;;1.87;;
38513;SDS011;24282;48.400;10.808;2023-11-18T11:54:30;2.35;;;1.67;;
38513;SDS011;24282;48.400;10.808;2023-11-18T11:57:03;3.20;;;2.07;;
38513;SDS011;24282;48.400;10.808;2023-11-18T12:02:14;2.63;;;1.60;;
38513;SDS011;24282;48.400;10.808;2023-11-18T12:04:44;2.93;;;1.67;;
38513;SDS011;24282;48.400;10.808;2023-11-18T12:07:10;3.10;;;1.90;;
38513;SDS011;24282;48.400;10.808;2023-11-18T12:09:40;3.10;;;2.00;;
38513;SDS011;24282;48.400;10.808;2023-11-18T12:12:18;4.43;;;2.20;;
38513;SDS011;24282;48.400;10.808;2023-11-18T12:14:48;4.07;;;2.60;;
38513;SDS011;24282;48.400;10.808;2023-11-18T12:17:16;3.67;;;2.43;;
38513;SDS011;24282;48.400;10.808;2023-11-18T12:19:46;2.67;;;1.90;;
38513;SDS011;24282;48.400;10.808;2023-11-18T12:22:21;4.63;;;2.27;;
38513;SDS011;24282;48.400;10.808;2023-11-18T12:27:45;3.00;;;2.10;;
38513;SDS011;24282;48.400;10.808;2023-11-18T12:35:31;2.20;;;1.43;;
38513;SDS011;24282;48.400;10.808;2023-11-18T12:43:46;2.70;;;1.73;;
38513;SDS011;24282;48.400;10.808;2023-11-18T12:49:08;3.55;;;2.15;;
38513;SDS011;24282;48.400;10.808;2023-11-18T12:51:40;3.10;;;2.07;;
38513;SDS011;24282;48.400;10.808;2023-11-18T12:54:09;4.13;;;2.00;;
38513;SDS011;24282;48.400;10.808;2023-11-18T12:56:37;3.60;;;2.33;;
38513;SDS011;24282;48.400;10.808;2023-11-18T12:59:09;2.83;;;2.00;;
38513;SDS011;24282;48.400;10.808;2023-11-18T13:01:38;3.93;;;2.43;;
38513;SDS011;24282;48.400;10.808;2023-11-18T13:04:07;3.17;;;2.13;;
38513;SDS011;24282;48.400;10.808;2023-11-18T13:06:34;3.03;;;2.00;;
38513;SDS011;24282;48.400;10.808;2023-11-18T13:09:00;4.27;;;2.50;;
38513;SDS011;24282;48.400;10.808;2023-11-18T13:11:31;3.07;;;2.03;;
38513;SDS011;24282;48.400;10.808;2023-11-18T13:13:59;5.07;;;2.50;;
38513;SDS011;24282;48.400;10.808;2023-11-18T13:16:24;3.03;;;2.00;;
38513;SDS011;24282;48.400;10.808;2023-11-18T13:18:50;3.53;;;1.70;;
38513;SDS011;24282;48.400;10.808;2023-11-18T13:21:17;3.13;;;2.07;;
38513;SDS011;24282;48.400;10.808;2023-11-18T13:23:45;3.37;;;1.83;;
38513;SDS011;24282;48.400;10.808;2023-11-18T13:26:19;2.30;;;1.60;;
38513;SDS011;24282;48.400;10.808;2023-11-18T13:28:46;3.13;;;1.73;;
38513;SDS011;24282;48.400;10.808;2023-11-18T13:31:13;2.40;;;1.57;;
38513;SDS011;24282;48.400;10.808;2023-11-18T13:33:47;3.43;;;1.80;;
38513;SDS011;24282;48.400;10.808;2023-11-18T13:36:14;2.63;;;1.95;;
38513;SDS011;24282;48.400;10.808;2023-11-18T13:38:40;4.20;;;2.40;;
38513;SDS011;24282;48.400;10.808;2023-11-18T13:41:09;5.30;;;3.07;;
38513;SDS011;24282;48.400;10.808;2023-11-18T13:43:44;7.13;;;4.17;;
38513;SDS011;24282;48.400;10.808;2023-11-18T13:46:17;5.57;;;3.60;;
38513;SDS011;24282;48.400;10.808;2023-11-18T13:48:52;8.77;;;4.10;;
38513;SDS011;24282;48.400;10.808;2023-11-18T13:51:19;8.57;;;5.10;;
38513;SDS011;24282;48.400;10.808;2023-11-18T13:53:46;10.77;;;7.13;;
38513;SDS011;24282;48.400;10.808;2023-11-18T13:56:13;7.07;;;4.87;;
38513;SDS011;24282;48.400;10.808;2023-11-18T13:58:41;4.00;;;2.33;;
38513;SDS011;24282;48.400;10.808;2023-11-18T14:01:08;3.47;;;2.10;;
38513;SDS011;24282;48.400;10.808;2023-11-18T14:03:36;4.43;;;1.87;;
38513;SDS011;24282;48.400;10.808;2023-11-18T14:06:05;2.20;;;1.50;;
38513;SDS011;24282;48.400;10.808;2023-11-18T14:08:32;4.73;;;2.53;;
38513;SDS011;24282;48.400;10.808;2023-11-18T14:10:59;10.60;;;7.77;;
38513;SDS011;24282;48.400;10.808;2023-11-18T14:13:25;11.93;;;8.37;;
38513;SDS011;24282;48.400;10.808;2023-11-18T14:15:56;14.27;;;9.20;;
38513;SDS011;24282;48.400;10.808;2023-11-18T14:18:22;13.07;;;8.13;;
38513;SDS011;24282;48.400;10.808;2023-11-18T14:20:48;11.23;;;8.30;;
38513;SDS011;24282;48.400;10.808;2023-11-18T14:23:15;8.43;;;6.30;;
38513;SDS011;24282;48.400;10.808;2023-11-18T14:25:41;7.20;;;5.10;;
38513;SDS011;24282;48.400;10.808;2023-11-18T14:28:07;5.87;;;3.83;;
38513;SDS011;24282;48.400;10.808;2023-11-18T14:30:36;4.80;;;3.30;;
38513;SDS011;24282;48.400;10.808;2023-11-18T14:33:02;3.53;;;2.40;;
38513;SDS011;24282;48.400;10.808;2023-11-18T14:35:29;5.70;;;3.20;;
38513;SDS011;24282;48.400;10.808;2023-11-18T14:37:55;10.67;;;7.67;;
38513;SDS011;24282;48.400;10.808;2023-11-18T14:40:21;12.87;;;9.47;;
38513;SDS011;24282;48.400;10.808;2023-11-18T14:42:49;10.93;;;8.57;;
38513;SDS011;24282;48.400;10.808;2023-11-18T14:45:16;8.00;;;5.40;;
38513;SDS011;24282;48.400;10.808;2023-11-18T14:47:42;4.40;;;3.00;;
38513;SDS011;24282;48.400;10.808;2023-11-18T14:50:22;3.73;;;2.20;;
38513;SDS011;24282;48.400;10.808;2023-11-18T14:52:50;3.47;;;1.97;;
38513;SDS011;24282;48.400;10.808;2023-11-18T14:55:19;2.90;;;1.77;;
38513;SDS011;24282;48.400;10.808;2023-11-18T14:57:45;4.30;;;2.87;;
38513;SDS011;24282;48.400;10.808;2023-11-18T15:00:11;6.47;;;3.70;;
38513;SDS011;24282;48.400;10.808;2023-11-18T15:02:47;4.65;;;3.38;;
38513;SDS011;24282;48.400;10.808;2023-11-18T15:05:15;4.90;;;3.30;;
38513;SDS011;24282;48.400;10.808;2023-11-18T15:07:44;5.40;;;3.63;;
38513;SDS011;24282;48.400;10.808;2023-11-18T15:10:11;7.73;;;5.37;;
38513;SDS011;24282;48.400;10.808;2023-11-18T15:12:39;10.37;;;7.43;;
38513;SDS011;24282;48.400;10.808;2023-11-18T15:15:06;12.40;;;9.83;;
38513;SDS011;24282;48.400;10.808;2023-11-18T15:17:32;11.73;;;9.37;;